createdAt,value
2019-03-24T00:00:27.781Z,59.40
2019-03-24T00:02:58.676Z,59.40
2019-03-24T00:05:26.904Z,58.10
2019-03-24T00:07:56.879Z,58.20
2019-03-24T00:10:25.293Z,58.80
2019-03-24T00:12:53.520Z,60.10
2019-03-24T00:15:26.291Z,58.80
2019-03-24T00:17:51.744Z,60.90
2019-03-24T00:20:20.316Z,58.60
2019-03-24T00:22:48.795Z,59.30
2019-03-24T00:25:17.036Z,59.60
2019-03-24T00:27:45.269Z,61.20
2019-03-24T00:30:13.505Z,61.30
2019-03-24T00:32:41.733Z,62.10
2019-03-24T00:35:09.972Z,63.20
2019-03-24T00:37:38.201Z,62.90
2019-03-24T00:40:07.007Z,63.50
2019-03-24T00:42:35.336Z,62.80
2019-03-24T00:45:07.576Z,63.50
2019-03-24T00:47:35.872Z,63.80
2019-03-24T00:50:05.956Z,64.00
2019-03-24T00:52:34.181Z,64.20
2019-03-24T00:55:02.422Z,63.20
2019-03-24T00:57:30.652Z,63.80
2019-03-24T00:59:58.930Z,64.80
2019-03-24T01:02:27.164Z,64.60
2019-03-24T01:04:55.400Z,63.80
2019-03-24T01:07:23.631Z,62.70
2019-03-24T01:09:51.867Z,62.30
2019-03-24T01:12:20.092Z,62.30
2019-03-24T01:14:48.337Z,62.40
2019-03-24T01:17:16.560Z,62.50
2019-03-24T01:19:44.799Z,63.50
2019-03-24T01:22:13.028Z,64.10
2019-03-24T01:24:41.265Z,63.50
2019-03-24T01:27:09.811Z,63.20
2019-03-24T01:29:38.044Z,62.90
2019-03-24T01:32:06.275Z,63.50
2019-03-24T01:34:34.503Z,64.20
2019-03-24T01:37:02.734Z,64.00
2019-03-24T01:39:30.965Z,64.40
2019-03-24T01:41:59.188Z,64.40
2019-03-24T01:44:27.466Z,65.40
2019-03-24T01:46:55.696Z,66.10
2019-03-24T01:49:23.924Z,64.90
2019-03-24T01:51:52.172Z,64.50
2019-03-24T01:54:20.401Z,64.00
2019-03-24T01:57:08.060Z,63.00
2019-03-24T01:59:36.280Z,63.00
2019-03-24T02:02:04.521Z,63.70
2019-03-24T02:04:32.836Z,63.80
2019-03-24T02:07:01.071Z,64.80
2019-03-24T02:09:29.766Z,65.00
2019-03-24T02:11:57.997Z,66.10
2019-03-24T02:14:26.218Z,65.20
2019-03-24T02:16:54.454Z,64.70
2019-03-24T02:19:22.675Z,64.90
2019-03-24T02:21:50.908Z,64.50
2019-03-24T02:24:19.133Z,65.00
2019-03-24T02:26:47.372Z,65.50
2019-03-24T02:29:15.592Z,65.70
2019-03-24T02:31:43.907Z,66.50
2019-03-24T02:34:12.425Z,66.30
2019-03-24T02:36:40.661Z,65.30
2019-03-24T02:39:09.135Z,66.20
2019-03-24T02:41:37.401Z,67.00
2019-03-24T02:44:05.609Z,66.90
2019-03-24T02:46:33.841Z,66.70
2019-03-24T02:49:02.068Z,67.00
2019-03-24T02:51:30.292Z,66.00
2019-03-24T02:53:58.520Z,65.90
2019-03-24T02:56:26.752Z,66.20
2019-03-24T02:58:54.975Z,66.90
2019-03-24T03:01:23.213Z,67.20
2019-03-24T03:03:51.433Z,67.10
2019-03-24T03:06:19.677Z,66.70
2019-03-24T03:08:47.898Z,66.90
2019-03-24T03:11:16.136Z,67.90
2019-03-24T03:13:44.365Z,66.80
2019-03-24T03:16:12.608Z,66.70
2019-03-24T03:18:40.833Z,67.70
2019-03-24T03:21:09.061Z,69.00
2019-03-24T03:23:37.285Z,68.90
2019-03-24T03:26:05.524Z,68.00
2019-03-24T03:28:33.744Z,67.90
2019-03-24T03:31:01.986Z,68.00
2019-03-24T03:33:30.226Z,68.20
2019-03-24T03:35:58.612Z,67.30
2019-03-24T03:38:26.869Z,67.00
2019-03-24T03:40:55.150Z,69.00
2019-03-24T03:43:23.386Z,67.70
2019-03-24T03:45:51.645Z,67.90
2019-03-24T03:48:20.253Z,68.10
2019-03-24T03:50:48.479Z,69.30
2019-03-24T03:53:16.709Z,69.90
2019-03-24T03:55:44.920Z,68.20
2019-03-24T03:58:13.164Z,67.80
2019-03-24T04:00:41.387Z,68.20
2019-03-24T04:03:09.613Z,68.10
2019-03-24T04:05:37.859Z,69.00
2019-03-24T04:08:06.359Z,69.90
2019-03-24T04:10:34.578Z,70.90
2019-03-24T04:13:14.863Z,70.40
2019-03-24T04:15:43.090Z,70.10
2019-03-24T04:18:11.334Z,70.00
2019-03-24T04:20:40.092Z,70.40
2019-03-24T04:23:08.592Z,71.30
2019-03-24T04:25:36.870Z,71.50
2019-03-24T04:28:05.109Z,71.10
2019-03-24T04:30:33.345Z,70.50
2019-03-24T04:33:01.582Z,71.40
2019-03-24T04:35:29.792Z,71.80
2019-03-24T04:37:58.026Z,73.90
2019-03-24T04:40:26.244Z,72.90
2019-03-24T04:42:54.784Z,72.80
2019-03-24T04:45:23.008Z,71.80
2019-03-24T04:47:51.248Z,71.40
2019-03-24T04:50:19.473Z,71.30
2019-03-24T04:52:47.704Z,71.20
2019-03-24T04:55:16.266Z,71.40
2019-03-24T04:57:44.502Z,70.80
2019-03-24T05:00:12.716Z,70.00
2019-03-24T05:02:40.953Z,69.20
2019-03-24T05:05:09.540Z,71.30
2019-03-24T05:07:38.353Z,71.50
2019-03-24T05:10:12.756Z,71.20
2019-03-24T05:12:41.064Z,70.60
2019-03-24T05:15:09.352Z,71.20
2019-03-24T05:17:37.583Z,71.80
2019-03-24T05:20:06.681Z,72.50
2019-03-24T05:22:34.908Z,71.70
2019-03-24T05:25:03.204Z,71.50
2019-03-24T05:27:31.744Z,71.40
2019-03-24T05:29:59.973Z,71.80
2019-03-24T05:32:28.205Z,72.00
2019-03-24T05:34:56.432Z,72.60
2019-03-24T05:37:24.661Z,72.30
2019-03-24T05:39:52.892Z,72.90
2019-03-24T05:42:21.114Z,72.60
2019-03-24T05:44:49.412Z,71.90
2019-03-24T05:47:17.636Z,72.70
2019-03-24T05:49:45.864Z,71.70
2019-03-24T05:52:14.092Z,71.80
2019-03-24T05:54:42.328Z,71.60
2019-03-24T05:57:10.552Z,71.70
2019-03-24T05:59:38.789Z,71.80
2019-03-24T06:02:07.008Z,71.80
2019-03-24T06:04:35.238Z,72.20
2019-03-24T06:07:03.460Z,71.60
2019-03-24T06:09:31.688Z,72.40
2019-03-24T06:11:59.984Z,72.70
2019-03-24T06:14:28.220Z,74.00
2019-03-24T06:16:56.444Z,75.60
2019-03-24T06:19:24.675Z,73.40
2019-03-24T06:21:53.196Z,73.10
2019-03-24T06:24:21.430Z,73.00
2019-03-24T06:26:49.658Z,72.30
2019-03-24T06:29:17.889Z,71.50
2019-03-24T06:31:46.116Z,72.20
2019-03-24T06:34:14.348Z,72.00
2019-03-24T06:36:42.572Z,72.00
2019-03-24T06:39:10.809Z,73.50
2019-03-24T06:41:39.024Z,74.10
2019-03-24T06:44:07.264Z,73.00
2019-03-24T06:46:35.489Z,71.70
2019-03-24T06:49:03.734Z,71.80
2019-03-24T06:51:31.944Z,72.60
2019-03-24T06:54:00.488Z,73.20
2019-03-24T06:56:28.786Z,73.60
2019-03-24T06:58:57.019Z,73.40
2019-03-24T07:01:25.295Z,73.70
2019-03-24T07:03:54.055Z,73.50
2019-03-24T07:06:22.883Z,73.20
2019-03-24T07:08:51.234Z,73.40
2019-03-24T07:11:19.682Z,73.10
2019-03-24T07:13:48.038Z,73.40
2019-03-24T07:16:18.469Z,74.20
2019-03-24T07:18:46.450Z,74.20
2019-03-24T07:21:15.193Z,74.60
2019-03-24T07:23:43.586Z,74.50
2019-03-24T07:26:12.039Z,75.70
2019-03-24T07:28:40.373Z,74.10
2019-03-24T07:31:08.825Z,74.10
2019-03-24T07:33:37.609Z,71.90
2019-03-24T07:36:06.236Z,70.70
2019-03-24T07:38:34.688Z,72.10
2019-03-24T07:41:05.813Z,72.00
2019-03-24T07:43:33.623Z,71.20
2019-03-24T07:46:02.072Z,70.40
2019-03-24T07:48:30.533Z,99.90
2019-03-24T07:50:59.141Z,97.70
2019-03-24T07:53:27.371Z,91.30
2019-03-24T07:55:55.612Z,60.90
2019-03-24T07:58:23.843Z,58.70
2019-03-24T08:00:52.081Z,59.40
2019-03-24T08:03:20.304Z,62.30
2019-03-24T08:05:48.642Z,63.20
2019-03-24T08:08:17.047Z,64.20
2019-03-24T08:10:45.657Z,63.60
2019-03-24T08:13:14.126Z,66.40
2019-03-24T08:15:42.519Z,67.60
2019-03-24T08:18:11.125Z,68.50
2019-03-24T08:20:41.381Z,67.20
2019-03-24T08:23:10.138Z,67.80
2019-03-24T08:25:38.696Z,66.80
2019-03-24T08:28:07.563Z,66.60
2019-03-24T08:30:36.927Z,65.10
2019-03-24T08:33:07.412Z,64.60
2019-03-24T08:35:35.866Z,63.80
2019-03-24T08:38:04.796Z,61.90
2019-03-24T08:40:33.233Z,63.10
2019-03-24T08:43:02.961Z,62.60
2019-03-24T08:45:31.429Z,61.50
2019-03-24T08:47:59.938Z,62.40
2019-03-24T08:50:28.332Z,62.20
2019-03-24T08:52:56.822Z,60.90
2019-03-24T08:55:25.701Z,60.70
2019-03-24T08:57:54.078Z,60.50
2019-03-24T09:00:30.479Z,60.60
2019-03-24T09:02:52.778Z,61.10
2019-03-24T09:05:21.174Z,62.10
2019-03-24T09:07:49.747Z,61.40
2019-03-24T09:10:18.074Z,61.00
2019-03-24T09:12:46.472Z,59.40
2019-03-24T09:15:14.881Z,59.00
2019-03-24T09:17:43.349Z,59.30
2019-03-24T09:20:11.825Z,59.20
2019-03-24T09:22:40.051Z,58.70
2019-03-24T09:25:08.281Z,58.10
2019-03-24T09:27:36.520Z,57.90
2019-03-24T09:30:06.690Z,57.40
2019-03-24T09:32:34.926Z,56.20
2019-03-24T09:35:03.829Z,57.00
2019-03-24T09:37:32.339Z,56.80
2019-03-24T09:40:00.561Z,56.30
2019-03-24T09:42:28.890Z,56.30
2019-03-24T09:44:59.105Z,57.80
2019-03-24T09:47:27.883Z,56.00
2019-03-24T09:49:56.337Z,56.30
2019-03-24T09:52:24.730Z,55.10
2019-03-24T09:54:53.081Z,53.90
2019-03-24T09:57:21.533Z,54.10
2019-03-24T09:59:50.018Z,53.10
2019-03-24T10:02:18.421Z,52.10
2019-03-24T10:04:46.816Z,52.50
2019-03-24T10:07:15.325Z,52.00
2019-03-24T10:09:43.850Z,50.90
2019-03-24T10:12:12.080Z,52.50
2019-03-24T10:14:40.582Z,51.00
2019-03-24T10:17:08.817Z,49.50
2019-03-24T10:19:37.045Z,50.60
2019-03-24T10:22:05.287Z,48.50
2019-03-24T10:24:33.785Z,49.00
2019-03-24T10:27:02.024Z,46.60
2019-03-24T10:29:30.252Z,48.50
2019-03-24T10:31:58.510Z,47.60
2019-03-24T10:34:26.719Z,46.50
2019-03-24T10:36:54.966Z,48.40
2019-03-24T10:39:23.461Z,45.50
2019-03-24T10:41:52.128Z,45.00
2019-03-24T10:44:20.367Z,43.50
2019-03-24T10:46:48.889Z,43.30
2019-03-24T10:49:24.737Z,43.50
2019-03-24T10:51:48.448Z,43.30
2019-03-24T10:54:16.694Z,41.90
2019-03-24T10:56:44.921Z,41.60
2019-03-24T10:59:13.444Z,40.90
2019-03-24T11:01:42.266Z,44.40
2019-03-24T11:04:10.820Z,42.50
2019-03-24T11:06:39.403Z,40.80
2019-03-24T11:09:07.969Z,42.10
2019-03-24T11:11:36.421Z,41.00
2019-03-24T11:14:04.973Z,38.40
2019-03-24T11:16:33.848Z,40.20
2019-03-24T11:19:02.530Z,38.90
2019-03-24T11:21:31.316Z,39.10
2019-03-24T11:23:59.785Z,40.50
2019-03-24T11:26:28.176Z,40.40
2019-03-24T11:28:56.610Z,38.90
2019-03-24T11:31:25.064Z,38.40
2019-03-24T11:33:53.512Z,36.40
2019-03-24T11:36:22.971Z,35.20
2019-03-24T11:38:53.266Z,35.90
2019-03-24T11:41:21.558Z,37.30
2019-03-24T11:43:49.991Z,38.80
2019-03-24T11:46:18.794Z,38.60
2019-03-24T11:48:47.304Z,39.00
2019-03-24T11:51:17.324Z,38.40
2019-03-24T11:53:45.897Z,38.80
2019-03-24T11:56:14.765Z,38.80
2019-03-24T11:58:43.300Z,38.30
2019-03-24T12:01:12.239Z,38.00
2019-03-24T12:03:40.546Z,39.10
2019-03-24T12:06:14.537Z,39.20
2019-03-24T12:08:39.029Z,38.30
2019-03-24T12:11:07.267Z,39.20
2019-03-24T12:13:35.519Z,40.00
2019-03-24T12:16:03.744Z,38.40
2019-03-24T12:18:32.321Z,39.60
2019-03-24T12:21:00.564Z,42.90
2019-03-24T12:23:28.888Z,41.30
2019-03-24T12:25:57.132Z,41.90
2019-03-24T12:28:25.385Z,41.60
2019-03-24T12:30:53.632Z,42.50
2019-03-24T12:33:21.913Z,43.40
2019-03-24T12:35:50.140Z,43.30
2019-03-24T12:38:18.407Z,43.00
2019-03-24T12:40:46.636Z,43.40
2019-03-24T12:43:19.422Z,43.40
2019-03-24T12:45:45.223Z,44.80
2019-03-24T12:48:13.559Z,43.60
2019-03-24T12:50:41.859Z,43.40
2019-03-24T12:53:10.100Z,42.00
2019-03-24T12:55:38.332Z,42.40
2019-03-24T12:58:06.587Z,42.10
2019-03-24T13:00:37.117Z,42.50
2019-03-24T13:03:05.557Z,42.40
2019-03-24T13:05:33.787Z,41.10
2019-03-24T13:08:13.773Z,42.00
2019-03-24T13:10:42.740Z,42.60
2019-03-24T13:13:11.535Z,44.00
2019-03-24T13:15:40.404Z,45.20
2019-03-24T13:18:08.660Z,41.90
2019-03-24T13:20:38.726Z,42.70
2019-03-24T13:23:06.860Z,42.50
2019-03-24T13:25:36.351Z,40.00
2019-03-24T13:28:04.823Z,41.20
2019-03-24T13:30:33.085Z,42.20
2019-03-24T13:33:01.388Z,41.90
2019-03-24T13:35:29.637Z,43.80
2019-03-24T13:37:57.865Z,41.30
2019-03-24T13:40:26.165Z,41.90
2019-03-24T13:42:54.408Z,41.10
2019-03-24T13:45:22.659Z,42.20
2019-03-24T13:47:51.171Z,41.90
2019-03-24T13:50:19.412Z,42.60
2019-03-24T13:52:47.640Z,43.10
2019-03-24T13:55:16.105Z,42.30
2019-03-24T13:57:44.337Z,41.00
2019-03-24T14:00:14.222Z,42.10
2019-03-24T14:02:42.460Z,42.30
2019-03-24T14:05:11.054Z,41.20
2019-03-24T14:07:39.283Z,42.10
2019-03-24T14:10:07.609Z,42.70
2019-03-24T14:12:35.840Z,41.70
2019-03-24T14:15:05.920Z,41.90
2019-03-24T14:17:34.143Z,41.70
2019-03-24T14:20:02.386Z,42.30
2019-03-24T14:22:30.661Z,42.40
2019-03-24T14:24:59.042Z,42.20
2019-03-24T14:27:27.252Z,42.80
2019-03-24T14:29:55.502Z,42.90
2019-03-24T14:32:23.728Z,42.20
2019-03-24T14:34:51.994Z,42.20
2019-03-24T14:37:20.278Z,41.60
2019-03-24T14:39:48.517Z,40.50
2019-03-24T14:42:16.748Z,41.40
2019-03-24T14:44:45.273Z,41.40
2019-03-24T14:47:13.501Z,41.40
2019-03-24T14:49:41.741Z,41.10
2019-03-24T14:52:10.012Z,40.20
2019-03-24T14:54:38.258Z,41.30
2019-03-24T14:57:06.797Z,40.70
2019-03-24T14:59:35.037Z,42.10
2019-03-24T15:02:03.377Z,41.70
2019-03-24T15:04:31.620Z,41.50
2019-03-24T15:06:59.851Z,40.60
2019-03-24T15:09:28.100Z,40.80
2019-03-24T15:11:56.332Z,41.80
2019-03-24T15:14:24.562Z,41.90
2019-03-24T15:16:52.824Z,42.30
2019-03-24T15:19:21.052Z,41.60
2019-03-24T15:21:49.453Z,43.60
2019-03-24T15:24:17.692Z,43.10
2019-03-24T15:26:46.219Z,43.10
2019-03-24T15:29:14.441Z,43.00
2019-03-24T15:31:42.689Z,43.70
2019-03-24T15:34:10.911Z,43.00
2019-03-24T15:36:39.425Z,43.90
2019-03-24T15:39:08.992Z,43.50
2019-03-24T15:41:37.235Z,44.00
2019-03-24T15:44:05.461Z,44.80
2019-03-24T15:46:33.704Z,45.00
2019-03-24T15:49:01.935Z,44.90
2019-03-24T15:51:30.525Z,45.00
2019-03-24T15:53:58.760Z,45.70
2019-03-24T15:56:26.984Z,45.40
2019-03-24T15:58:55.218Z,44.60
2019-03-24T16:01:23.473Z,46.10
2019-03-24T16:03:52.004Z,46.50
2019-03-24T16:06:20.244Z,46.20
2019-03-24T16:08:48.466Z,46.40
2019-03-24T16:11:16.723Z,43.60
2019-03-24T16:13:45.176Z,43.40
2019-03-24T16:16:13.416Z,44.30
2019-03-24T16:18:41.661Z,44.80
2019-03-24T16:21:09.905Z,45.60
2019-03-24T16:23:38.148Z,46.90
2019-03-24T16:26:06.373Z,46.80
2019-03-24T16:28:34.604Z,46.70
2019-03-24T16:31:02.886Z,47.10
2019-03-24T16:33:31.164Z,47.10
2019-03-24T16:35:59.709Z,47.90
2019-03-24T16:38:27.952Z,47.80
2019-03-24T16:40:56.215Z,47.80
2019-03-24T16:43:24.845Z,48.00
2019-03-24T16:45:53.095Z,48.10
2019-03-24T16:48:21.326Z,47.90
2019-03-24T16:50:49.573Z,48.20
2019-03-24T16:53:17.814Z,49.10
2019-03-24T16:55:46.333Z,49.50
2019-03-24T16:58:14.576Z,50.00
2019-03-24T17:00:42.822Z,51.00
2019-03-24T17:03:11.049Z,51.10
2019-03-24T17:05:39.309Z,51.00
2019-03-24T17:08:07.537Z,50.90
2019-03-24T17:10:36.085Z,51.50
2019-03-24T17:13:04.676Z,51.60
2019-03-24T17:15:32.918Z,52.20
2019-03-24T17:18:01.428Z,52.40
2019-03-24T17:20:29.659Z,52.70
2019-03-24T17:22:57.900Z,53.20
2019-03-24T17:25:26.469Z,53.40
2019-03-24T17:27:54.770Z,53.50
2019-03-24T17:30:23.017Z,53.70
2019-03-24T17:32:51.593Z,54.30
2019-03-24T17:35:19.838Z,54.40
2019-03-24T17:37:48.360Z,54.90
2019-03-24T17:40:16.952Z,54.60
2019-03-24T17:42:45.201Z,54.90
2019-03-24T17:45:13.433Z,55.70
2019-03-24T17:47:41.670Z,56.40
2019-03-24T17:50:12.077Z,56.00
2019-03-24T17:52:40.484Z,56.10
2019-03-24T17:55:08.728Z,56.30
2019-03-24T17:57:36.972Z,56.10
2019-03-24T18:00:12.992Z,56.50
2019-03-24T18:02:41.231Z,56.30
2019-03-24T18:05:10.530Z,56.50
2019-03-24T18:07:38.764Z,56.90
2019-03-24T18:10:08.439Z,57.10
2019-03-24T18:12:36.716Z,57.10
2019-03-24T18:15:09.542Z,57.20
2019-03-24T18:17:37.780Z,57.00
2019-03-24T18:20:06.457Z,57.10
2019-03-24T18:22:34.719Z,57.30
2019-03-24T18:25:03.343Z,57.60
2019-03-24T18:27:31.634Z,57.40
2019-03-24T18:29:59.860Z,57.40
2019-03-24T18:32:28.106Z,57.80
2019-03-24T18:34:56.325Z,58.40
2019-03-24T18:37:24.610Z,58.80
2019-03-24T18:39:52.940Z,59.30
2019-03-24T18:42:21.264Z,59.60
2019-03-24T18:44:49.512Z,60.00
2019-03-24T18:47:17.761Z,59.30
2019-03-24T18:49:45.992Z,59.20
2019-03-24T18:52:22.290Z,59.30
2019-03-24T18:54:44.571Z,59.80
2019-03-24T18:57:12.848Z,59.70
2019-03-24T18:59:41.117Z,59.70
2019-03-24T19:02:09.480Z,59.60
2019-03-24T19:04:37.731Z,60.00
2019-03-24T19:07:05.988Z,60.40
2019-03-24T19:09:34.221Z,60.10
2019-03-24T19:12:02.504Z,60.20
2019-03-24T19:14:30.731Z,60.20
2019-03-24T19:16:58.964Z,60.90
2019-03-24T19:19:27.193Z,60.90
2019-03-24T19:21:55.452Z,60.50
2019-03-24T19:24:23.913Z,60.40
2019-03-24T19:26:52.482Z,60.40
2019-03-24T19:29:20.709Z,60.20
2019-03-24T19:31:48.960Z,60.50
2019-03-24T19:34:17.270Z,60.30
2019-03-24T19:36:45.512Z,60.00
2019-03-24T19:39:13.861Z,60.10
2019-03-24T19:41:42.444Z,60.20
2019-03-24T19:44:10.708Z,60.20
2019-03-24T19:46:38.936Z,60.70
2019-03-24T19:49:08.489Z,60.10
2019-03-24T19:51:37.192Z,60.60
2019-03-24T19:54:05.696Z,60.70
2019-03-24T19:56:33.923Z,59.70
2019-03-24T19:59:02.192Z,59.40
2019-03-24T20:01:30.441Z,59.20
2019-03-24T20:03:58.757Z,59.50
2019-03-24T20:06:27.483Z,60.60
2019-03-24T20:08:55.707Z,60.50
2019-03-24T20:11:23.928Z,60.50
2019-03-24T20:13:52.260Z,61.20
2019-03-24T20:16:20.501Z,61.50
2019-03-24T20:18:48.744Z,61.70
2019-03-24T20:21:16.977Z,62.00
2019-03-24T20:23:45.241Z,61.20
2019-03-24T20:26:13.828Z,62.20
2019-03-24T20:29:01.811Z,62.90
2019-03-24T20:31:30.105Z,62.70
2019-03-24T20:33:58.345Z,64.20
2019-03-24T20:36:31.194Z,63.50
2019-03-24T20:38:59.434Z,63.90
2019-03-24T20:41:27.664Z,63.60
2019-03-24T20:43:56.012Z,63.40
2019-03-24T20:46:24.660Z,63.60
2019-03-24T20:48:52.988Z,63.90
2019-03-24T20:51:21.216Z,63.20
2019-03-24T20:53:49.476Z,62.90
2019-03-24T20:56:17.705Z,63.60
2019-03-24T20:58:45.949Z,64.00
2019-03-24T21:01:14.171Z,65.20
2019-03-24T21:03:42.413Z,65.20
2019-03-24T21:06:10.752Z,65.30
2019-03-24T21:08:39.248Z,65.20
2019-03-24T21:11:07.724Z,65.00
2019-03-24T21:13:36.208Z,65.30
2019-03-24T21:16:04.693Z,64.90
2019-03-24T21:18:32.939Z,64.40
2019-03-24T21:21:01.449Z,64.20
2019-03-24T21:23:30.070Z,64.30
2019-03-24T21:25:58.401Z,64.60
2019-03-24T21:28:26.640Z,64.60
2019-03-24T21:30:54.868Z,64.60
2019-03-24T21:33:23.123Z,64.60
2019-03-24T21:35:51.354Z,65.00
2019-03-24T21:38:19.668Z,65.50
2019-03-24T21:40:47.893Z,65.60
2019-03-24T21:43:16.145Z,65.80
2019-03-24T21:45:44.371Z,68.20
2019-03-24T21:48:12.613Z,68.20
2019-03-24T21:50:40.845Z,68.00
2019-03-24T21:53:09.091Z,67.40
2019-03-24T21:55:37.312Z,67.40
2019-03-24T21:58:05.553Z,68.50
2019-03-24T22:00:36.503Z,67.10
2019-03-24T22:03:04.950Z,68.20
2019-03-24T22:05:33.508Z,68.80
2019-03-24T22:08:01.753Z,68.70
2019-03-24T22:10:29.984Z,68.70
2019-03-24T22:13:17.717Z,69.00
2019-03-24T22:15:45.968Z,67.50
2019-03-24T22:18:14.208Z,68.30
2019-03-24T22:20:48.779Z,68.50
2019-03-24T22:23:13.041Z,69.00
2019-03-24T22:25:41.337Z,68.40
2019-03-24T22:28:09.576Z,69.00
2019-03-24T22:30:37.807Z,67.90
2019-03-24T22:33:06.049Z,68.00
2019-03-24T22:35:34.272Z,67.10
2019-03-24T22:38:02.503Z,66.40
2019-03-24T22:40:30.745Z,67.00
2019-03-24T22:42:59.204Z,67.90
2019-03-24T22:45:27.444Z,67.80
2019-03-24T22:47:55.676Z,67.80
2019-03-24T22:50:23.965Z,68.50
2019-03-24T22:52:52.456Z,68.20
2019-03-24T22:55:20.696Z,67.40
2019-03-24T22:57:48.928Z,68.20
2019-03-24T23:00:18.809Z,69.00
2019-03-24T23:02:47.037Z,68.20
2019-03-24T23:05:15.281Z,67.40
2019-03-24T23:07:43.504Z,68.40
2019-03-24T23:10:12.589Z,69.30
2019-03-24T23:12:40.816Z,68.80
2019-03-24T23:15:09.059Z,68.10
2019-03-24T23:17:37.455Z,69.00
2019-03-24T23:20:06.370Z,68.40
2019-03-24T23:22:34.596Z,68.40
2019-03-24T23:25:03.005Z,67.60
2019-03-24T23:27:31.232Z,66.00
2019-03-24T23:29:59.472Z,66.20
2019-03-24T23:32:27.695Z,65.40
2019-03-24T23:34:55.941Z,64.80
2019-03-24T23:37:24.172Z,63.90
2019-03-24T23:39:52.608Z,64.10
2019-03-24T23:42:20.845Z,63.60
2019-03-24T23:44:49.164Z,63.10
2019-03-24T23:47:17.395Z,63.70
2019-03-24T23:49:45.638Z,64.20
2019-03-24T23:52:13.863Z,64.40
2019-03-24T23:54:42.168Z,63.50
2019-03-24T23:57:10.720Z,63.40
2019-03-24T23:59:38.958Z,63.30
